sensor_id;sensor_type;location;lat;lon;timestamp;pressure;altitude;pressure_sealevel;temperature;humidity
79686;BME280;69153;47.918;11.428;2023-08-08T00:01:28;95433.25;;;14.20;52.17
79686;BME280;69153;47.918;11.428;2023-08-08T00:03:53;95438.50;;;14.11;52.32
79686;BME280;69153;47.918;11.428;2023-08-08T00:06:18;95435.31;;;13.82;53.49
79686;BME280;69153;47.918;11.428;2023-08-08T00:08:44;95434.63;;;14.25;52.26
79686;BME280;69153;47.918;11.428;2023-08-08T00:11:09;95429.88;;;14.29;52.00
79686;BME280;69153;47.918;11.428;2023-08-08T00:13:35;95432.44;;;14.54;51.46
79686;BME280;69153;47.918;11.428;2023-08-08T00:16:00;95436.47;;;14.37;51.64
79686;BME280;69153;47.918;11.428;2023-08-08T00:18:26;95423.22;;;14.46;51.43
79686;BME280;69153;47.918;11.428;2023-08-08T00:20:51;95420.34;;;14.19;52.05
79686;BME280;69153;47.918;11.428;2023-08-08T00:23:16;95418.25;;;14.14;52.10
79686;BME280;69153;47.918;11.428;2023-08-08T00:25:42;95425.28;;;13.86;52.69
79686;BME280;69153;47.918;11.428;2023-08-08T00:28:07;95419.06;;;14.02;52.91
79686;BME280;69153;47.918;11.428;2023-08-08T00:30:33;95427.22;;;14.07;52.70
79686;BME280;69153;47.918;11.428;2023-08-08T00:32:58;95422.94;;;14.10;52.32
79686;BME280;69153;47.918;11.428;2023-08-08T00:35:24;95418.44;;;14.19;52.42
79686;BME280;69153;47.918;11.428;2023-08-08T00:37:49;95413.72;;;14.23;52.22
79686;BME280;69153;47.918;11.428;2023-08-08T00:40:15;95417.69;;;13.97;53.25
79686;BME280;69153;47.918;11.428;2023-08-08T00:42:40;95413.22;;;13.94;53.24
79686;BME280;69153;47.918;11.428;2023-08-08T00:45:06;95409.81;;;14.37;52.22
79686;BME280;69153;47.918;11.428;2023-08-08T00:47:34;95404.13;;;14.48;51.31
79686;BME280;69153;47.918;11.428;2023-08-08T00:50:02;95407.84;;;14.50;51.42
79686;BME280;69153;47.918;11.428;2023-08-08T00:52:28;95399.16;;;14.37;51.81
79686;BME280;69153;47.918;11.428;2023-08-08T00:54:54;95408.41;;;14.45;51.82
79686;BME280;69153;47.918;11.428;2023-08-08T00:57:20;95402.88;;;14.61;51.65
79686;BME280;69153;47.918;11.428;2023-08-08T00:59:45;95406.72;;;14.60;51.44
79686;BME280;69153;47.918;11.428;2023-08-08T01:02:11;95405.19;;;14.81;51.16
79686;BME280;69153;47.918;11.428;2023-08-08T01:04:37;95407.19;;;14.68;51.28
79686;BME280;69153;47.918;11.428;2023-08-08T01:09:52;95405.56;;;14.71;51.59
79686;BME280;69153;47.918;11.428;2023-08-08T01:12:19;95395.97;;;14.73;51.03
79686;BME280;69153;47.918;11.428;2023-08-08T01:14:45;95395.69;;;14.80;50.88
79686;BME280;69153;47.918;11.428;2023-08-08T01:17:12;95390.97;;;14.84;50.69
79686;BME280;69153;47.918;11.428;2023-08-08T01:19:39;95390.66;;;14.82;52.44
79686;BME280;69153;47.918;11.428;2023-08-08T01:22:13;95397.13;;;14.41;54.45
79686;BME280;69153;47.918;11.428;2023-08-08T01:24:41;95393.03;;;14.27;55.25
79686;BME280;69153;47.918;11.428;2023-08-08T01:27:06;95392.63;;;14.16;55.93
79686;BME280;69153;47.918;11.428;2023-08-08T01:29:32;95398.13;;;14.13;55.93
79686;BME280;69153;47.918;11.428;2023-08-08T01:31:58;95404.09;;;13.82;56.90
79686;BME280;69153;47.918;11.428;2023-08-08T01:34:23;95397.69;;;13.80;57.08
79686;BME280;69153;47.918;11.428;2023-08-08T01:36:59;95398.69;;;13.73;57.46
79686;BME280;69153;47.918;11.428;2023-08-08T01:39:30;95385.56;;;13.79;57.23
79686;BME280;69153;47.918;11.428;2023-08-08T01:41:56;95384.00;;;13.69;57.59
79686;BME280;69153;47.918;11.428;2023-08-08T01:44:24;95381.34;;;13.69;57.55
79686;BME280;69153;47.918;11.428;2023-08-08T01:46:52;95388.59;;;13.68;57.55
79686;BME280;69153;47.918;11.428;2023-08-08T01:49:17;95383.06;;;13.63;57.64
79686;BME280;69153;47.918;11.428;2023-08-08T01:51:43;95371.13;;;13.67;57.66
79686;BME280;69153;47.918;11.428;2023-08-08T01:54:09;95374.84;;;13.70;57.47
79686;BME280;69153;47.918;11.428;2023-08-08T01:56:34;95369.84;;;13.72;57.66
79686;BME280;69153;47.918;11.428;2023-08-08T01:58:59;95376.22;;;13.74;57.63
79686;BME280;69153;47.918;11.428;2023-08-08T02:01:25;95380.59;;;13.68;57.63
79686;BME280;69153;47.918;11.428;2023-08-08T02:03:50;95373.66;;;13.71;57.20
79686;BME280;69153;47.918;11.428;2023-08-08T02:06:16;95380.59;;;13.68;57.24
79686;BME280;69153;47.918;11.428;2023-08-08T02:08:41;95376.25;;;13.62;57.59
79686;BME280;69153;47.918;11.428;2023-08-08T02:11:07;95371.53;;;13.66;57.08
79686;BME280;69153;47.918;11.428;2023-08-08T02:13:32;95369.31;;;13.64;57.29
79686;BME280;69153;47.918;11.428;2023-08-08T02:15:58;95369.88;;;13.59;57.79
79686;BME280;69153;47.918;11.428;2023-08-08T02:18:23;95372.53;;;13.59;57.44
79686;BME280;69153;47.918;11.428;2023-08-08T02:20:49;95368.50;;;13.54;57.61
79686;BME280;69153;47.918;11.428;2023-08-08T02:23:14;95366.06;;;13.47;57.96
79686;BME280;69153;47.918;11.428;2023-08-08T02:25:39;95371.41;;;13.47;57.84
79686;BME280;69153;47.918;11.428;2023-08-08T02:28:05;95373.53;;;13.40;58.19
79686;BME280;69153;47.918;11.428;2023-08-08T02:30:30;95361.53;;;13.35;58.84
79686;BME280;69153;47.918;11.428;2023-08-08T02:32:56;95364.31;;;13.32;58.94
79686;BME280;69153;47.918;11.428;2023-08-08T02:35:21;95364.84;;;13.27;59.15
79686;BME280;69153;47.918;11.428;2023-08-08T02:37:47;95365.38;;;13.34;58.80
79686;BME280;69153;47.918;11.428;2023-08-08T02:40:12;95375.47;;;13.27;58.80
79686;BME280;69153;47.918;11.428;2023-08-08T02:42:38;95368.66;;;13.26;58.86
79686;BME280;69153;47.918;11.428;2023-08-08T02:45:04;95376.66;;;13.26;58.68
79686;BME280;69153;47.918;11.428;2023-08-08T02:47:29;95374.72;;;13.26;58.76
79686;BME280;69153;47.918;11.428;2023-08-08T02:49:55;95374.44;;;13.24;58.84
79686;BME280;69153;47.918;11.428;2023-08-08T02:52:20;95376.78;;;13.22;58.76
79686;BME280;69153;47.918;11.428;2023-08-08T02:54:46;95376.03;;;13.21;59.07
79686;BME280;69153;47.918;11.428;2023-08-08T02:57:11;95370.50;;;13.16;59.41
79686;BME280;69153;47.918;11.428;2023-08-08T02:59:37;95373.97;;;13.13;59.02
79686;BME280;69153;47.918;11.428;2023-08-08T03:02:03;95375.91;;;13.12;59.24
79686;BME280;69153;47.918;11.428;2023-08-08T03:04:29;95373.97;;;13.13;59.52
79686;BME280;69153;47.918;11.428;2023-08-08T03:06:55;95368.38;;;13.11;59.60
79686;BME280;69153;47.918;11.428;2023-08-08T03:09:20;95376.34;;;13.11;59.97
79686;BME280;69153;47.918;11.428;2023-08-08T03:11:46;95374.84;;;13.10;59.73
79686;BME280;69153;47.918;11.428;2023-08-08T03:14:11;95373.69;;;13.11;59.66
79686;BME280;69153;47.918;11.428;2023-08-08T03:16:37;95376.03;;;13.09;59.66
79686;BME280;69153;47.918;11.428;2023-08-08T03:19:02;95376.03;;;13.09;59.70
79686;BME280;69153;47.918;11.428;2023-08-08T03:21:28;95377.63;;;13.06;60.23
79686;BME280;69153;47.918;11.428;2023-08-08T03:23:53;95387.19;;;13.04;60.45
79686;BME280;69153;47.918;11.428;2023-08-08T03:26:19;95378.38;;;13.07;60.44
79686;BME280;69153;47.918;11.428;2023-08-08T03:28:44;95364.53;;;12.99;60.67
79686;BME280;69153;47.918;11.428;2023-08-08T03:31:10;95366.66;;;13.04;60.45
79686;BME280;69153;47.918;11.428;2023-08-08T03:33:36;95365.50;;;13.05;60.73
79686;BME280;69153;47.918;11.428;2023-08-08T03:36:01;95365.59;;;13.02;61.15
79686;BME280;69153;47.918;11.428;2023-08-08T03:38:26;95368.47;;;12.95;60.85
79686;BME280;69153;47.918;11.428;2023-08-08T03:40:52;95374.41;;;12.86;61.29
79686;BME280;69153;47.918;11.428;2023-08-08T03:43:17;95374.22;;;12.68;62.02
79686;BME280;69153;47.918;11.428;2023-08-08T03:45:44;95372.31;;;12.68;62.01
79686;BME280;69153;47.918;11.428;2023-08-08T03:48:10;95374.41;;;12.73;61.80
79686;BME280;69153;47.918;11.428;2023-08-08T03:50:36;95374.13;;;12.71;62.15
79686;BME280;69153;47.918;11.428;2023-08-08T03:53:01;95371.75;;;12.61;62.18
79686;BME280;69153;47.918;11.428;2023-08-08T03:55:27;95371.34;;;12.62;62.11
79686;BME280;69153;47.918;11.428;2023-08-08T03:57:53;95371.75;;;12.48;62.70
79686;BME280;69153;47.918;11.428;2023-08-08T04:00:18;95366.66;;;12.66;62.54
79686;BME280;69153;47.918;11.428;2023-08-08T04:02:44;95366.66;;;12.41;63.35
79686;BME280;69153;47.918;11.428;2023-08-08T04:05:09;95366.22;;;12.42;63.32
79686;BME280;69153;47.918;11.428;2023-08-08T04:07:35;95369.41;;;12.37;63.32
79686;BME280;69153;47.918;11.428;2023-08-08T04:10:00;95367.72;;;12.56;63.09
79686;BME280;69153;47.918;11.428;2023-08-08T04:12:26;95375.91;;;12.74;62.33
79686;BME280;69153;47.918;11.428;2023-08-08T04:14:51;95376.56;;;12.91;61.78
79686;BME280;69153;47.918;11.428;2023-08-08T04:17:17;95372.50;;;12.99;61.50
79686;BME280;69153;47.918;11.428;2023-08-08T04:19:42;95374.41;;;12.99;61.56
79686;BME280;69153;47.918;11.428;2023-08-08T04:22:08;95384.84;;;12.93;62.02
79686;BME280;69153;47.918;11.428;2023-08-08T04:24:33;95385.50;;;12.72;62.47
79686;BME280;69153;47.918;11.428;2023-08-08T04:26:59;95386.88;;;12.76;62.31
79686;BME280;69153;47.918;11.428;2023-08-08T04:29:24;95386.03;;;12.92;61.87
79686;BME280;69153;47.918;11.428;2023-08-08T04:31:50;95390.59;;;13.04;61.69
79686;BME280;69153;47.918;11.428;2023-08-08T04:34:15;95394.22;;;13.10;61.13
79686;BME280;69153;47.918;11.428;2023-08-08T04:36:42;95390.16;;;13.06;61.43
79686;BME280;69153;47.918;11.428;2023-08-08T04:39:08;95389.75;;;13.07;61.61
79686;BME280;69153;47.918;11.428;2023-08-08T04:41:33;95389.13;;;13.16;61.37
79686;BME280;69153;47.918;11.428;2023-08-08T04:43:58;95388.78;;;13.27;60.94
79686;BME280;69153;47.918;11.428;2023-08-08T04:46:24;95385.28;;;13.30;60.81
79686;BME280;69153;47.918;11.428;2023-08-08T04:48:50;95392.41;;;13.33;60.43
79686;BME280;69153;47.918;11.428;2023-08-08T04:51:16;95387.94;;;13.30;60.30
79686;BME280;69153;47.918;11.428;2023-08-08T04:53:41;95395.91;;;13.30;60.40
79686;BME280;69153;47.918;11.428;2023-08-08T04:56:07;95390.38;;;13.37;60.67
79686;BME280;69153;47.918;11.428;2023-08-08T04:58:32;95398.56;;;13.42;60.83
79686;BME280;69153;47.918;11.428;2023-08-08T05:00:58;95395.22;;;13.51;60.76
79686;BME280;69153;47.918;11.428;2023-08-08T05:03:24;95394.78;;;13.52;60.74
79686;BME280;69153;47.918;11.428;2023-08-08T05:05:49;95398.41;;;13.58;59.98
79686;BME280;69153;47.918;11.428;2023-08-08T05:08:14;95391.81;;;13.50;59.91
79686;BME280;69153;47.918;11.428;2023-08-08T05:10:40;95406.63;;;13.51;59.32
79686;BME280;69153;47.918;11.428;2023-08-08T05:13:06;95399.69;;;13.54;59.54
79686;BME280;69153;47.918;11.428;2023-08-08T05:15:31;95396.22;;;13.44;59.68
79686;BME280;69153;47.918;11.428;2023-08-08T05:17:57;95399.28;;;13.55;59.60
79686;BME280;69153;47.918;11.428;2023-08-08T05:20:22;95394.47;;;13.63;59.16
79686;BME280;69153;47.918;11.428;2023-08-08T05:22:48;95395.72;;;13.71;59.29
79686;BME280;69153;47.918;11.428;2023-08-08T05:25:14;95386.31;;;13.79;59.14
79686;BME280;69153;47.918;11.428;2023-08-08T05:27:40;95393.44;;;13.82;58.57
79686;BME280;69153;47.918;11.428;2023-08-08T05:30:06;95396.91;;;13.92;58.27
79686;BME280;69153;47.918;11.428;2023-08-08T05:32:31;95394.44;;;13.98;58.32
79686;BME280;69153;47.918;11.428;2023-08-08T05:34:57;95391.47;;;13.95;58.15
79686;BME280;69153;47.918;11.428;2023-08-08T05:37:23;95390.84;;;13.91;58.13
79686;BME280;69153;47.918;11.428;2023-08-08T05:39:49;95392.31;;;13.92;58.28
79686;BME280;69153;47.918;11.428;2023-08-08T05:42:15;95397.28;;;14.03;58.25
79686;BME280;69153;47.918;11.428;2023-08-08T05:44:40;95388.47;;;14.15;57.89
79686;BME280;69153;47.918;11.428;2023-08-08T05:47:08;95385.38;;;14.17;57.59
79686;BME280;69153;47.918;11.428;2023-08-08T05:49:34;95391.03;;;14.19;57.17
79686;BME280;69153;47.918;11.428;2023-08-08T05:52:00;95386.41;;;14.10;57.41
79686;BME280;69153;47.918;11.428;2023-08-08T05:54:25;95393.91;;;13.68;58.38
79686;BME280;69153;47.918;11.428;2023-08-08T05:56:50;95394.47;;;13.50;58.83
79686;BME280;69153;47.918;11.428;2023-08-08T05:59:16;95389.31;;;13.09;60.32
79686;BME280;69153;47.918;11.428;2023-08-08T06:01:41;95395.81;;;13.33;60.28
79686;BME280;69153;47.918;11.428;2023-08-08T06:04:07;95386.75;;;13.31;60.43
79686;BME280;69153;47.918;11.428;2023-08-08T06:06:33;95391.34;;;13.30;60.54
79686;BME280;69153;47.918;11.428;2023-08-08T06:08:58;95381.63;;;13.49;59.77
79686;BME280;69153;47.918;11.428;2023-08-08T06:11:23;95381.22;;;13.72;59.26
79686;BME280;69153;47.918;11.428;2023-08-08T06:13:49;95389.75;;;13.33;59.88
79686;BME280;69153;47.918;11.428;2023-08-08T06:16:14;95380.75;;;13.52;59.85
79686;BME280;69153;47.918;11.428;2023-08-08T06:18:41;95374.91;;;13.79;59.63
79686;BME280;69153;47.918;11.428;2023-08-08T06:21:06;95379.34;;;13.60;60.09
79686;BME280;69153;47.918;11.428;2023-08-08T06:23:32;95385.88;;;13.81;59.13
79686;BME280;69153;47.918;11.428;2023-08-08T06:25:57;95375.63;;;14.14;58.23
79686;BME280;69153;47.918;11.428;2023-08-08T06:28:23;95378.69;;;14.34;57.26
79686;BME280;69153;47.918;11.428;2023-08-08T06:30:49;95378.81;;;14.30;57.11
79686;BME280;69153;47.918;11.428;2023-08-08T06:33:14;95376.84;;;14.44;57.51
79686;BME280;69153;47.918;11.428;2023-08-08T06:35:40;95377.94;;;14.55;57.04
79686;BME280;69153;47.918;11.428;2023-08-08T06:38:05;95367.91;;;14.59;56.65
79686;BME280;69153;47.918;11.428;2023-08-08T06:40:31;95377.00;;;14.80;56.21
79686;BME280;69153;47.918;11.428;2023-08-08T06:42:57;95373.44;;;14.43;56.05
79686;BME280;69153;47.918;11.428;2023-08-08T06:45:22;95372.16;;;14.88;55.51
79686;BME280;69153;47.918;11.428;2023-08-08T06:47:47;95363.25;;;14.82;54.58
79686;BME280;69153;47.918;11.428;2023-08-08T06:50:13;95368.97;;;15.11;54.81
79686;BME280;69153;47.918;11.428;2023-08-08T06:52:39;95371.22;;;15.22;53.66
79686;BME280;69153;47.918;11.428;2023-08-08T06:55:05;95375.53;;;15.28;53.23
79686;BME280;69153;47.918;11.428;2023-08-08T06:57:33;95375.69;;;15.34;53.29
79686;BME280;69153;47.918;11.428;2023-08-08T06:59:58;95368.47;;;15.44;53.87
79686;BME280;69153;47.918;11.428;2023-08-08T07:02:24;95363.38;;;15.27;53.39
79686;BME280;69153;47.918;11.428;2023-08-08T07:04:49;95361.28;;;15.22;52.76
79686;BME280;69153;47.918;11.428;2023-08-08T07:07:15;95358.63;;;15.22;52.38
79686;BME280;69153;47.918;11.428;2023-08-08T07:09:40;95351.38;;;15.41;50.55
79686;BME280;69153;47.918;11.428;2023-08-08T07:12:07;95346.81;;;15.60;49.74
79686;BME280;69153;47.918;11.428;2023-08-08T07:14:32;95351.13;;;15.85;48.15
79686;BME280;69153;47.918;11.428;2023-08-08T07:16:58;95351.44;;;15.68;47.43
79686;BME280;69153;47.918;11.428;2023-08-08T07:19:24;95351.13;;;15.66;47.20
79686;BME280;69153;47.918;11.428;2023-08-08T07:21:49;95345.03;;;15.84;48.01
79686;BME280;69153;47.918;11.428;2023-08-08T07:24:16;95356.75;;;16.05;47.38
79686;BME280;69153;47.918;11.428;2023-08-08T07:26:41;95349.94;;;15.77;46.75
79686;BME280;69153;47.918;11.428;2023-08-08T07:29:07;95346.41;;;15.80;47.38
79686;BME280;69153;47.918;11.428;2023-08-08T07:31:33;95344.72;;;16.00;47.74
79686;BME280;69153;47.918;11.428;2023-08-08T07:33:59;95341.88;;;16.13;47.87
79686;BME280;69153;47.918;11.428;2023-08-08T07:36:24;95337.06;;;16.44;47.45
79686;BME280;69153;47.918;11.428;2023-08-08T07:38:49;95337.13;;;16.26;46.93
79686;BME280;69153;47.918;11.428;2023-08-08T07:41:15;95340.56;;;16.18;46.65
79686;BME280;69153;47.918;11.428;2023-08-08T07:43:40;95340.88;;;15.92;47.07
79686;BME280;69153;47.918;11.428;2023-08-08T07:46:06;95337.13;;;16.26;46.88
79686;BME280;69153;47.918;11.428;2023-08-08T07:48:31;95333.88;;;16.22;45.60
79686;BME280;69153;47.918;11.428;2023-08-08T07:50:57;95335.63;;;16.34;46.25
79686;BME280;69153;47.918;11.428;2023-08-08T07:53:22;95344.38;;;16.35;46.19
79686;BME280;69153;47.918;11.428;2023-08-08T07:55:47;95328.06;;;16.24;45.88
79686;BME280;69153;47.918;11.428;2023-08-08T07:58:13;95331.19;;;16.13;46.52
79686;BME280;69153;47.918;11.428;2023-08-08T08:00:39;95328.78;;;16.24;46.36
79686;BME280;69153;47.918;11.428;2023-08-08T08:03:04;95319.09;;;16.36;47.23
79686;BME280;69153;47.918;11.428;2023-08-08T08:05:30;95321.72;;;16.54;47.66
79686;BME280;69153;47.918;11.428;2023-08-08T08:07:55;95322.16;;;16.71;47.62
79686;BME280;69153;47.918;11.428;2023-08-08T08:10:21;95322.75;;;16.66;45.96
79686;BME280;69153;47.918;11.428;2023-08-08T08:12:46;95324.47;;;16.87;46.04
79686;BME280;69153;47.918;11.428;2023-08-08T08:15:12;95312.66;;;16.94;45.35
79686;BME280;69153;47.918;11.428;2023-08-08T08:17:38;95315.63;;;16.96;46.09
79686;BME280;69153;47.918;11.428;2023-08-08T08:20:04;95326.22;;;17.14;45.60
79686;BME280;69153;47.918;11.428;2023-08-08T08:22:32;95318.22;;;16.81;45.38
79686;BME280;69153;47.918;11.428;2023-08-08T08:24:58;95309.69;;;16.50;46.69
79686;BME280;69153;47.918;11.428;2023-08-08T08:27:23;95313.09;;;16.68;47.04
79686;BME280;69153;47.918;11.428;2023-08-08T08:29:49;95302.69;;;16.94;46.10
79686;BME280;69153;47.918;11.428;2023-08-08T08:32:14;95310.81;;;16.76;45.58
79686;BME280;69153;47.918;11.428;2023-08-08T08:34:40;95310.66;;;16.79;46.52
79686;BME280;69153;47.918;11.428;2023-08-08T08:37:05;95313.13;;;17.16;46.25
79686;BME280;69153;47.918;11.428;2023-08-08T08:39:31;95304.56;;;17.27;45.67
79686;BME280;69153;47.918;11.428;2023-08-08T08:42:00;95303.34;;;17.37;45.21
79686;BME280;69153;47.918;11.428;2023-08-08T08:44:30;95303.97;;;17.08;45.12
79686;BME280;69153;47.918;11.428;2023-08-08T08:46:59;95304.81;;;17.14;45.72
79686;BME280;69153;47.918;11.428;2023-08-08T08:49:30;95308.94;;;16.91;46.31
79686;BME280;69153;47.918;11.428;2023-08-08T08:51:59;95300.59;;;17.22;46.22
79686;BME280;69153;47.918;11.428;2023-08-08T08:54:27;95300.06;;;17.33;45.75
79686;BME280;69153;47.918;11.428;2023-08-08T08:56:54;95293.69;;;17.30;45.73
79686;BME280;69153;47.918;11.428;2023-08-08T08:59:20;95299.22;;;17.50;45.81
79686;BME280;69153;47.918;11.428;2023-08-08T09:01:46;95286.91;;;17.82;44.93
79686;BME280;69153;47.918;11.428;2023-08-08T09:04:14;95297.34;;;17.95;44.94
79686;BME280;69153;47.918;11.428;2023-08-08T09:06:42;95302.25;;;18.11;44.83
79686;BME280;69153;47.918;11.428;2023-08-08T09:09:08;95298.00;;;18.05;43.09
79686;BME280;69153;47.918;11.428;2023-08-08T09:11:34;95291.78;;;17.69;43.58
79686;BME280;69153;47.918;11.428;2023-08-08T09:13:59;95294.56;;;17.75;44.98
79686;BME280;69153;47.918;11.428;2023-08-08T09:16:25;95291.59;;;17.73;44.05
79686;BME280;69153;47.918;11.428;2023-08-08T09:18:51;95284.97;;;17.83;43.63
79686;BME280;69153;47.918;11.428;2023-08-08T09:21:18;95279.50;;;18.21;44.96
79686;BME280;69153;47.918;11.428;2023-08-08T09:23:43;95273.03;;;18.43;42.79
79686;BME280;69153;47.918;11.428;2023-08-08T09:26:09;95281.06;;;18.43;42.96
79686;BME280;69153;47.918;11.428;2023-08-08T09:28:35;95276.34;;;18.52;42.67
79686;BME280;69153;47.918;11.428;2023-08-08T09:31:00;95284.84;;;18.51;43.25
79686;BME280;69153;47.918;11.428;2023-08-08T09:33:29;95269.81;;;18.74;41.91
79686;BME280;69153;47.918;11.428;2023-08-08T09:35:55;95275.63;;;18.87;41.23
79686;BME280;69153;47.918;11.428;2023-08-08T09:38:20;95263.75;;;19.14;41.43
79686;BME280;69153;47.918;11.428;2023-08-08T09:40:46;95257.50;;;19.22;39.94
79686;BME280;69153;47.918;11.428;2023-08-08T09:43:11;95269.91;;;18.79;40.38
79686;BME280;69153;47.918;11.428;2023-08-08T09:45:39;95263.84;;;18.84;40.89
79686;BME280;69153;47.918;11.428;2023-08-08T09:48:07;95259.22;;;18.85;40.59
79686;BME280;69153;47.918;11.428;2023-08-08T09:50:33;95259.06;;;19.29;41.87
79686;BME280;69153;47.918;11.428;2023-08-08T09:53:02;95252.38;;;19.45;40.84
79686;BME280;69153;47.918;11.428;2023-08-08T09:55:28;95244.56;;;19.93;40.79
79686;BME280;69153;47.918;11.428;2023-08-08T09:57:54;95245.44;;;20.36;39.99
79686;BME280;69153;47.918;11.428;2023-08-08T10:00:20;95250.72;;;20.25;37.92
79686;BME280;69153;47.918;11.428;2023-08-08T10:02:46;95251.41;;;20.20;38.06
79686;BME280;69153;47.918;11.428;2023-08-08T10:05:14;95239.06;;;20.08;37.04
79686;BME280;69153;47.918;11.428;2023-08-08T10:07:43;95245.06;;;20.23;37.40
79686;BME280;69153;47.918;11.428;2023-08-08T10:10:10;95240.78;;;20.37;36.06
79686;BME280;69153;47.918;11.428;2023-08-08T10:12:39;95253.34;;;20.19;36.08
79686;BME280;69153;47.918;11.428;2023-08-08T10:15:09;95244.13;;;20.31;36.66
79686;BME280;69153;47.918;11.428;2023-08-08T10:17:39;95245.16;;;20.71;36.53
79686;BME280;69153;47.918;11.428;2023-08-08T10:20:08;95241.94;;;20.67;34.18
79686;BME280;69153;47.918;11.428;2023-08-08T10:22:41;95239.03;;;20.71;34.48
79686;BME280;69153;47.918;11.428;2023-08-08T10:25:07;95238.66;;;20.94;34.54
79686;BME280;69153;47.918;11.428;2023-08-08T10:27:35;95229.41;;;21.01;31.75
79686;BME280;69153;47.918;11.428;2023-08-08T10:30:08;95237.25;;;21.10;32.08
79686;BME280;69153;47.918;11.428;2023-08-08T10:32:43;95223.28;;;20.58;32.24
79686;BME280;69153;47.918;11.428;2023-08-08T10:35:11;95244.34;;;20.59;30.72
79686;BME280;69153;47.918;11.428;2023-08-08T10:37:37;95230.19;;;20.64;31.47
79686;BME280;69153;47.918;11.428;2023-08-08T10:40:04;95234.66;;;20.79;31.91
79686;BME280;69153;47.918;11.428;2023-08-08T10:42:40;95236.88;;;20.75;32.31
79686;BME280;69153;47.918;11.428;2023-08-08T10:45:10;95241.53;;;20.80;33.33
79686;BME280;69153;47.918;11.428;2023-08-08T10:47:37;95225.66;;;20.93;32.87
79686;BME280;69153;47.918;11.428;2023-08-08T10:50:06;95232.44;;;21.20;31.97
79686;BME280;69153;47.918;11.428;2023-08-08T10:52:52;95214.97;;;21.10;32.30
79686;BME280;69153;47.918;11.428;2023-08-08T10:55:21;95221.19;;;21.27;32.27
79686;BME280;69153;47.918;11.428;2023-08-08T11:00:28;95222.75;;;21.72;34.03
79686;BME280;69153;47.918;11.428;2023-08-08T11:02:55;95213.22;;;22.22;33.53
79686;BME280;69153;47.918;11.428;2023-08-08T11:05:22;95217.41;;;22.17;30.42
79686;BME280;69153;47.918;11.428;2023-08-08T11:07:48;95223.78;;;21.92;31.18
79686;BME280;69153;47.918;11.428;2023-08-08T11:10:14;95217.88;;;21.88;32.10
79686;BME280;69153;47.918;11.428;2023-08-08T11:12:39;95215.44;;;21.90;32.13
79686;BME280;69153;47.918;11.428;2023-08-08T11:15:05;95223.28;;;21.93;32.81
79686;BME280;69153;47.918;11.428;2023-08-08T11:17:32;95223.03;;;22.08;32.75
79686;BME280;69153;47.918;11.428;2023-08-08T11:19:57;95218.41;;;22.31;32.74
79686;BME280;69153;47.918;11.428;2023-08-08T11:22:23;95212.00;;;22.28;31.69
79686;BME280;69153;47.918;11.428;2023-08-08T11:24:49;95200.69;;;22.41;31.29
79686;BME280;69153;47.918;11.428;2023-08-08T11:27:18;95201.69;;;22.27;31.03
79686;BME280;69153;47.918;11.428;2023-08-08T11:29:50;95210.81;;;22.07;30.90
79686;BME280;69153;47.918;11.428;2023-08-08T11:32:16;95203.69;;;22.15;32.50
79686;BME280;69153;47.918;11.428;2023-08-08T11:34:42;95194.53;;;22.46;31.55
79686;BME280;69153;47.918;11.428;2023-08-08T11:37:08;95193.84;;;22.45;32.31
79686;BME280;69153;47.918;11.428;2023-08-08T11:39:37;95190.63;;;22.53;30.89
79686;BME280;69153;47.918;11.428;2023-08-08T11:42:03;95185.69;;;22.51;29.96
79686;BME280;69153;47.918;11.428;2023-08-08T11:44:29;95183.16;;;22.87;29.73
79686;BME280;69153;47.918;11.428;2023-08-08T11:46:59;95185.41;;;22.71;29.52
79686;BME280;69153;47.918;11.428;2023-08-08T11:49:25;95187.38;;;22.65;29.03
79686;BME280;69153;47.918;11.428;2023-08-08T11:51:54;95194.69;;;22.93;30.43
79686;BME280;69153;47.918;11.428;2023-08-08T11:54:27;95181.97;;;22.82;29.33
79686;BME280;69153;47.918;11.428;2023-08-08T11:56:53;95176.81;;;22.78;29.89
79686;BME280;69153;47.918;11.428;2023-08-08T11:59:19;95182.13;;;23.01;29.69
79686;BME280;69153;47.918;11.428;2023-08-08T12:01:45;95162.56;;;22.78;30.31
79686;BME280;69153;47.918;11.428;2023-08-08T12:04:10;95160.81;;;22.75;29.39
79686;BME280;69153;47.918;11.428;2023-08-08T12:06:40;95160.72;;;22.28;30.30
79686;BME280;69153;47.918;11.428;2023-08-08T12:09:05;95169.81;;;22.14;30.24
79686;BME280;69153;47.918;11.428;2023-08-08T12:11:35;95167.81;;;22.42;32.33
79686;BME280;69153;47.918;11.428;2023-08-08T12:14:03;95166.31;;;22.47;31.67
79686;BME280;69153;47.918;11.428;2023-08-08T12:16:30;95167.25;;;22.61;31.93
79686;BME280;69153;47.918;11.428;2023-08-08T12:18:56;95168.47;;;22.71;30.83
79686;BME280;69153;47.918;11.428;2023-08-08T12:21:21;95169.28;;;22.43;29.09
79686;BME280;69153;47.918;11.428;2023-08-08T12:23:47;95168.03;;;22.56;28.55
79686;BME280;69153;47.918;11.428;2023-08-08T12:26:12;95165.81;;;22.49;28.86
79686;BME280;69153;47.918;11.428;2023-08-08T12:28:38;95165.34;;;22.44;28.85
79686;BME280;69153;47.918;11.428;2023-08-08T12:31:03;95154.00;;;22.68;29.11
79686;BME280;69153;47.918;11.428;2023-08-08T12:33:29;95163.06;;;22.76;29.12
79686;BME280;69153;47.918;11.428;2023-08-08T12:35:55;95147.69;;;22.43;30.47
79686;BME280;69153;47.918;11.428;2023-08-08T12:38:21;95167.81;;;22.37;32.91
79686;BME280;69153;47.918;11.428;2023-08-08T12:40:47;95161.84;;;22.61;29.63
79686;BME280;69153;47.918;11.428;2023-08-08T12:43:13;95150.63;;;22.45;29.01
79686;BME280;69153;47.918;11.428;2023-08-08T12:45:42;95149.41;;;22.41;28.70
79686;BME280;69153;47.918;11.428;2023-08-08T12:48:08;95146.13;;;22.65;29.44
79686;BME280;69153;47.918;11.428;2023-08-08T12:50:33;95137.97;;;22.87;30.24